May Valley, Colorado
Current Conditions -  °F | °C
As of 10:53 AM on Saturday 25 Oct 2014 (Local Time) from KLAA Reporting Station
Clear Clear  
Wind Chill: 71°   Ceiling: Unl
Heat Index: 71°   Visibility: 8mi
Dew Point: 35°   Wind: 10mph
Humidity: 27%   Direction: 280°W
Pressure: 30.13"   Gusts: NA
Location:  37.885°N, 102.667°W
Report Text: KLAA 251653Z AUTO 28009KT 8SM CLR 22/02 A3013 RMK AO2 SLP172 T02170017
Loading
Personal Weather Stations






























Interactive Weather Map
Tropical Storm Tracking
New forecast layout! Learn more

10-Day Weather Forecast

Advertisements
Track Severe Weather on mobile